Surface/Precipitation History
12/18/2014 16:27  to  12/19/2014 16:27
Change End Date:
Date/Time
(MST)
Sf
Temp Chem Water Layer Surface Precipitation
Sf Sub Frz Factor Pct Depth IcePct Cond Salin Type Intens Accum Rate
12/19/2014 16:21 Wet 37.0F 32F 32F 55 1% 0.00 in 0% 1 mhos 132 Rain Slight 0.00 in 0.0 iph
12/19/2014 16:15 Wet 37.6F 32F 32F 35 0% 0.00 in 0% 1 mhos 112 Rain Slight 0.00 in 0.0 iph
12/19/2014 16:11 Wet 37.9F 32F 32F 25 0% 0.00 in 0% 0 mhos 18 Rain Slight 0.00 in 0.0 iph
12/19/2014 16:05 Wet 38.3F 32F 32F 10 0% 0.00 in 0% 0 mhos 10 Rain Slight 0.00 in 0.0 iph
12/19/2014 15:54 Wet 39.4F 31F 32F 5 0% 0.00 in 0% 0 mhos 3 Rain Slight 0.00 in 0.0 iph
12/19/2014 15:51 Wet 39.7F 31F 32F 5 0% 0.00 in 0% 0 mhos 3 Rain Slight 0.00 in 0.0 iph
12/19/2014 15:44 Wet 40.3F 32F 32F 5 0% 0.00 in 0% 0 mhos 2 Rain Slight 0.00 in 0.0 iph
12/19/2014 15:40 Wet 40.6F 32F 32F 5 0% 0.00 in 0% 0 mhos 2 Rain Slight 0.00 in 0.0 iph
12/19/2014 15:34 Wet 41.0F 31F 32F 5 0% 0.00 in 0% 0 mhos 2 Rain Slight 0.00 in 0.0 iph
12/19/2014 15:24 Wet 42.1F 32F 32F 5 0% 0.00 in 0% 0 mhos 2 Rain Slight 0.00 in 0.0 iph
12/19/2014 15:21 Wet 42.4F 32F 32F 5 0% 0.00 in 0% 0 mhos 2 Rain Slight 0.00 in 0.0 iph
12/19/2014 15:14 Wet 43.0F 31F 32F 5 0% 0.00 in 0% 0 mhos 2 Rain Slight 0.00 in 0.0 iph
12/19/2014 15:11 Dry 43.3F 32F - - - - - 0 mhos 1 Rain Slight 0.00 in 0.0 iph
12/19/2014 15:04 Dry 44.1F 31F - - - - - 0 mhos 1 Rain Slight 0.00 in 0.0 iph
12/19/2014 14:54 Dry 44.8F 32F - - - - - 0 mhos 1 None None 0.00 in 0.0 iph
Date/Time
(MST)
Sf
Temp Chem Water Layer Surface Precipitation
Sf Sub Frz Factor Pct Depth IcePct Cond Salin Type Intens Accum Rate
12/19/2014 14:51 Dry 44.8F 32F - - - - - 0 mhos 1 None None 0.00 in 0.0 iph
12/19/2014 14:44 Dry 45.1F 32F - - - - - 0 mhos 1 None None 0.00 in 0.0 iph
12/19/2014 14:41 Dry 45.5F 32F - - - - - 0 mhos 1 None None 0.00 in 0.0 iph
12/19/2014 14:34 Dry 45.5F 31F - - - - - 0 mhos 1 None None 0.00 in 0.0 iph
12/19/2014 14:24 Dry 45.1F 32F - - - - - 0 mhos 1 None None 0.00 in 0.0 iph
12/19/2014 14:21 Dry 45.1F 32F - - - - - 0 mhos 1 None None 0.00 in 0.0 iph
12/19/2014 14:14 Dry 46.0F 31F - - - - - 0 mhos 2 None None 0.00 in 0.0 iph
12/19/2014 14:11 Dry 46.4F 32F - - - - - 0 mhos 2 None None 0.00 in 0.0 iph
12/19/2014 14:04 Dry 46.8F 32F - - - - - 0 mhos 2 None None 0.00 in 0.0 iph
12/19/2014 13:54 Dry 46.8F 32F - - - - - 0 mhos 2 None None 0.00 in 0.0 iph
12/19/2014 13:44 Dry 44.8F 31F - - - - - 0 mhos 3 None None 0.00 in 0.0 iph
12/19/2014 13:34 Dry 45.9F 31F - - - - - 0 mhos 3 None None 0.00 in 0.0 iph
12/19/2014 13:23 Dry 44.8F 31F - - - - - 0 mhos 3 None None 0.00 in 0.0 iph
12/19/2014 13:13 Dry 43.7F 31F - - - - - 0 mhos 4 None None 0.00 in 0.0 iph
12/19/2014 13:03 Dry 42.6F 32F - - - - - 0 mhos 4 None None 0.00 in 0.0 iph
Date/Time
(MST)
Sf
Temp Chem Water Layer Surface Precipitation
Sf Sub Frz Factor Pct Depth IcePct Cond Salin Type Intens Accum Rate
12/19/2014 10:51 Wet 36.9F 31F 32F 5 0% 0.00 in 0% 0 mhos 9 None None 0.00 in 0.0 iph
12/19/2014 10:42 Wet 36.9F 32F 32F 5 0% 0.00 in 0% 0 mhos 9 None None 0.00 in 0.0 iph
12/19/2014 10:41 Wet 36.7F 31F 32F 5 0% 0.00 in 0% 0 mhos 9 None None 0.00 in 0.0 iph
12/19/2014 10:32 Wet 36.3F 31F 32F 5 0% 0.00 in 0% 0 mhos 10 None None 0.00 in 0.0 iph
12/19/2014 10:22 Wet 36.1F 31F 32F 5 0% 0.00 in 0% 0 mhos 11 None None 0.01 in 0.0 iph
12/19/2014 10:21 Wet 36.1F 31F 32F 5 0% 0.00 in 0% 0 mhos 11 None None 0.01 in 0.0 iph
12/19/2014 10:12 Wet 35.8F 31F 32F 5 0% 0.00 in 0% 0 mhos 11 None None 0.01 in 0.0 iph
12/19/2014 10:10 Wet 35.6F 31F 32F 5 0% 0.00 in 0% 0 mhos 11 None None 0.01 in 0.0 iph
12/19/2014 10:02 Wet 35.6F 31F 32F 5 0% 0.00 in 0% 0 mhos 11 None None 0.01 in 0.0 iph
12/19/2014 09:52 Wet 35.4F 31F 32F 5 0% 0.00 in 0% 0 mhos 12 None None 0.01 in 0.0 iph
12/19/2014 09:51 Wet 35.4F 32F 32F 5 0% 0.00 in 0% 0 mhos 12 None None 0.01 in 0.0 iph
12/19/2014 09:42 Wet 35.2F 31F 32F 5 0% 0.00 in 0% 0 mhos 12 None None 0.01 in 0.0 iph
12/19/2014 09:40 Wet 35.2F 32F 32F 5 0% 0.00 in 0% 0 mhos 12 None None 0.01 in 0.0 iph
12/19/2014 09:32 Wet 34.9F 31F 32F 5 0% 0.00 in 0% 0 mhos 13 None None 0.01 in 0.0 iph
12/19/2014 09:22 Wet 34.5F 31F 32F 5 0% 0.00 in 0% 0 mhos 13 None None 0.02 in 0.0 iph
Date/Time
(MST)
Sf
Temp Chem Water Layer Surface Precipitation
Sf Sub Frz Factor Pct Depth IcePct Cond Salin Type Intens Accum Rate
12/19/2014 09:21 Wet 34.5F 31F 32F 5 0% 0.00 in 0% 0 mhos 13 None None 0.02 in 0.0 iph
12/19/2014 09:12 Wet 34.3F 31F 32F 10 0% 0.00 in 0% 0 mhos 13 None None 0.02 in 0.0 iph
12/19/2014 09:11 Wet 34.2F 31F 32F 10 0% 0.00 in 0% 0 mhos 13 None None 0.02 in 0.0 iph
12/19/2014 09:02 Wet 34.2F 31F 32F 10 0% 0.00 in 0% 0 mhos 14 None None 0.02 in 0.0 iph
12/19/2014 08:52 Wet 34.0F 31F 32F 10 0% 0.00 in 0% 0 mhos 14 None None 0.02 in 0.0 iph
12/19/2014 08:51 Wet 33.8F 32F 32F 5 0% 0.00 in 0% 0 mhos 14 None None 0.02 in 0.0 iph
12/19/2014 08:42 Wet 33.8F 31F 32F 10 0% 0.00 in 0% 0 mhos 15 None None 0.02 in 0.0 iph
12/19/2014 08:41 Wet 33.8F 31F 32F 10 0% 0.00 in 0% 0 mhos 15 None None 0.02 in 0.0 iph
12/19/2014 08:32 Wet 33.6F 31F 32F 10 0% 0.00 in 0% 0 mhos 15 None None 0.02 in 0.0 iph
12/19/2014 08:22 Wet 33.6F 31F 32F 10 0% 0.00 in 0% 0 mhos 15 None None 0.02 in 0.0 iph
12/19/2014 08:21 Wet 33.6F 31F 32F 10 0% 0.00 in 0% 0 mhos 15 None None 0.02 in 0.0 iph
12/19/2014 08:12 Wet 33.6F 31F 32F 10 0% 0.00 in 0% 0 mhos 15 None None 0.02 in 0.0 iph
12/19/2014 08:11 Wet 33.6F 31F 32F 10 0% 0.00 in 0% 0 mhos 15 None None 0.02 in 0.0 iph
12/19/2014 08:02 Wet 33.6F 31F 32F 10 0% 0.00 in 0% 0 mhos 16 None None 0.02 in 0.0 iph
12/19/2014 07:51 Wet 33.3F 31F 32F 10 0% 0.00 in 0% 0 mhos 16 None None 0.02 in 0.0 iph
Date/Time
(MST)
Sf
Temp Chem Water Layer Surface Precipitation
Sf Sub Frz Factor Pct Depth IcePct Cond Salin Type Intens Accum Rate
12/19/2014 07:51 Wet 33.3F 31F 32F 10 0% 0.00 in 0% 0 mhos 16 None None 0.02 in 0.0 iph
12/19/2014 07:41 Wet 33.4F 31F 32F 10 0% 0.00 in 0% 0 mhos 16 None None 0.02 in 0.0 iph
12/19/2014 07:41 Wet 33.3F 31F 32F 10 0% 0.00 in 0% 0 mhos 16 None None 0.02 in 0.0 iph
12/19/2014 07:31 Wet 33.4F 31F 32F 10 0% 0.00 in 0% 0 mhos 16 None None 0.02 in 0.0 iph
12/19/2014 07:21 Wet 33.4F 31F 32F 10 0% 0.00 in 0% 0 mhos 16 None None 0.02 in 0.0 iph
12/19/2014 07:21 Wet 33.3F 31F 32F 10 0% 0.00 in 0% 0 mhos 16 None None 0.02 in 0.0 iph
12/19/2014 07:11 Wet 33.1F 31F 32F 10 0% 0.00 in 0% 0 mhos 17 None None 0.02 in 0.0 iph
12/19/2014 07:11 Wet 33.1F 31F 32F 10 0% 0.00 in 0% 0 mhos 17 None None 0.02 in 0.0 iph
12/19/2014 07:01 Wet 33.1F 31F 32F 15 0% 0.00 in 0% 0 mhos 17 Rain Slight 0.02 in 0.0 iph
12/19/2014 06:51 Wet 32.9F 31F 32F 10 0% 0.00 in 0% 0 mhos 17 None None 0.02 in 0.0 iph
12/19/2014 06:41 Wet 32.9F 31F 32F 10 0% 0.00 in 0% 0 mhos 16 None None 0.02 in 0.0 iph
12/19/2014 06:40 Wet 32.9F 32F 32F 10 0% 0.00 in 0% 0 mhos 16 None None 0.02 in 0.0 iph
12/19/2014 06:31 Wet 32.9F 31F 32F 10 0% 0.00 in 0% 0 mhos 16 None None 0.02 in 0.0 iph
12/19/2014 06:21 Wet 32.5F 32F 32F 10 0% 0.00 in 0% 0 mhos 16 None None 0.02 in 0.0 iph
12/19/2014 06:21 Wet 32.5F 32F 32F 10 0% 0.00 in 0% 0 mhos 16 None None 0.02 in 0.0 iph
Date/Time
(MST)
Sf
Temp Chem Water Layer Surface Precipitation
Sf Sub Frz Factor Pct Depth IcePct Cond Salin Type Intens Accum Rate
12/19/2014 06:11 Wet 32.5F 31F 32F 10 0% 0.00 in 0% 0 mhos 19 None None 0.02 in 0.0 iph
12/19/2014 06:11 Wet 32.5F 31F 32F 10 0% 0.00 in 0% 0 mhos 19 None None 0.02 in 0.0 iph
12/19/2014 06:01 Wet 32.4F 31F 32F 10 0% 0.00 in 0% 0 mhos 18 None None 0.02 in 0.0 iph
12/19/2014 05:51 Wet 32.4F 31F 32F 10 0% 0.00 in 0% 0 mhos 18 None None 0.02 in 0.0 iph
12/19/2014 05:51 Wet 32.4F 31F 32F 10 0% 0.00 in 0% 0 mhos 18 None None 0.02 in 0.0 iph
12/19/2014 05:41 Wet 32.0F 31F 32F 10 0% 0.00 in 0% 0 mhos 18 None None 0.02 in 0.0 iph
12/19/2014 05:40 Wet 32.0F 31F 32F 10 0% 0.00 in 0% 0 mhos 18 None None 0.02 in 0.0 iph
12/19/2014 05:31 Wet 32.0F 31F 32F 10 0% 0.00 in 0% 0 mhos 18 None None 0.02 in 0.0 iph
12/19/2014 05:21 Wet 32.4F 31F 32F 10 0% 0.00 in 0% 0 mhos 18 None None 0.02 in 0.0 iph
12/19/2014 05:21 Wet 32.4F 31F 32F 10 0% 0.00 in 0% 0 mhos 18 None None 0.02 in 0.0 iph
12/19/2014 05:11 Wet 32.2F 31F 32F 10 0% 0.00 in 0% 0 mhos 18 None None 0.02 in 0.0 iph
12/19/2014 05:10 Wet 32.2F 31F 32F 10 0% 0.00 in 0% 0 mhos 18 None None 0.02 in 0.0 iph
12/19/2014 05:00 Wet 32.0F 31F 32F 10 0% 0.00 in 0% 0 mhos 18 None None 0.02 in 0.0 iph
12/19/2014 04:51 Chemically Wet 31.8F 31F 32F 10 0% - 81% 0 mhos 17 None None 0.02 in 0.0 iph
12/19/2014 04:50 Chemically Wet 31.8F 31F 32F 10 0% - 81% 0 mhos 17 None None 0.02 in 0.0 iph
Date/Time
(MST)
Sf
Temp Chem Water Layer Surface Precipitation
Sf Sub Frz Factor Pct Depth IcePct Cond Salin Type Intens Accum Rate
12/19/2014 04:40 Ice Warning 31.6F 31F 32F 10 0% - 96% 0 mhos 14 None None 0.02 in 0.0 iph
12/19/2014 04:40 Ice Warning 31.6F 31F 32F 10 0% - 96% 0 mhos 14 None None 0.02 in 0.0 iph
12/19/2014 04:30 Ice Warning 31.5F 31F 32F 10 0% - 98% 0 mhos 12 None None 0.02 in 0.0 iph
12/19/2014 04:21 Ice Warning 31.3F 31F 32F 10 0% - 98% 0 mhos 12 None None 0.02 in 0.0 iph
12/19/2014 04:20 Ice Warning 31.3F 31F 32F 10 0% - 98% 0 mhos 12 None None 0.02 in 0.0 iph
12/19/2014 04:11 Ice Warning 31.1F 31F 32F 10 0% - 99% 0 mhos 10 None None 0.02 in 0.0 iph
12/19/2014 04:10 Ice Warning 31.1F 31F 32F 10 0% - 99% 0 mhos 10 None None 0.02 in 0.0 iph
12/19/2014 04:00 Ice Warning 31.5F 31F 32F 10 0% - 98% 0 mhos 9 None None 0.02 in 0.0 iph
12/19/2014 03:52 Ice Warning 31.6F 32F 32F 10 0% - 98% 0 mhos 8 None None 0.02 in 0.0 iph
12/19/2014 03:50 Ice Warning 31.6F 31F 32F 10 0% - 98% 0 mhos 8 None None 0.02 in 0.0 iph
12/19/2014 03:40 Ice Warning 31.8F 31F 32F 5 0% - 97% 0 mhos 8 None None 0.02 in 0.0 iph
12/19/2014 03:40 Ice Warning 31.8F 31F 32F 5 0% - 97% 0 mhos 8 None None 0.02 in 0.0 iph
12/19/2014 03:30 Ice Warning 31.8F 31F 32F 5 0% - 92% 0 mhos 7 None None 0.02 in 0.0 iph
12/19/2014 03:21 Ice Warning 31.8F 31F 32F 5 0% - 92% 0 mhos 7 None None 0.02 in 0.0 iph
12/19/2014 03:20 Ice Warning 31.8F 31F 32F 5 0% - 92% 0 mhos 7 None None 0.02 in 0.0 iph
Date/Time
(MST)
Sf
Temp Chem Water Layer Surface Precipitation
Sf Sub Frz Factor Pct Depth IcePct Cond Salin Type Intens Accum Rate
12/19/2014 03:11 Wet 32.0F 32F 32F 5 0% 0.00 in 0% 0 mhos 7 None None 0.02 in 0.0 iph
12/19/2014 03:10 Wet 32.0F 31F 32F 5 0% 0.00 in 0% 0 mhos 7 None None 0.02 in 0.0 iph
12/19/2014 03:00 Wet 32.5F 31F 32F 5 0% 0.00 in 0% 0 mhos 7 None None 0.02 in 0.0 iph
12/19/2014 02:51 Wet 32.9F 31F 32F 5 0% 0.00 in 0% 0 mhos 7 None None 0.02 in 0.0 iph
12/19/2014 02:50 Wet 32.9F 31F 32F 5 0% 0.00 in 0% 0 mhos 7 None None 0.02 in 0.0 iph
12/19/2014 02:41 Wet 32.7F 31F 32F 5 0% 0.00 in 0% 0 mhos 7 None None 0.02 in 0.0 iph
12/19/2014 02:40 Wet 32.7F 31F 32F 5 0% 0.00 in 0% 0 mhos 7 None None 0.02 in 0.0 iph
12/19/2014 02:30 Wet 32.5F 31F 32F 5 0% 0.00 in 0% 0 mhos 7 None None 0.02 in 0.0 iph
12/19/2014 02:21 Wet 32.4F 31F 32F 5 0% 0.00 in 0% 0 mhos 7 None None 0.02 in 0.0 iph
12/19/2014 02:19 Wet 32.2F 31F 32F 5 0% 0.00 in 0% 0 mhos 7 None None 0.02 in 0.0 iph
12/19/2014 02:11 Wet 32.0F 31F 32F 5 0% 0.00 in 0% 0 mhos 7 None None 0.02 in 0.0 iph
12/19/2014 02:09 Wet 32.0F 31F 32F 5 0% 0.00 in 0% 0 mhos 7 None None 0.02 in 0.0 iph
12/19/2014 01:59 Ice Warning 31.8F 31F 32F 5 0% - 92% 0 mhos 7 None None 0.02 in 0.0 iph
12/19/2014 01:52 Ice Warning 31.8F 31F 32F 5 0% - 95% 0 mhos 7 None None 0.02 in 0.0 iph
12/19/2014 01:49 Ice Warning 31.8F 32F 32F 5 0% - 95% 0 mhos 7 None None 0.02 in 0.0 iph
Date/Time
(MST)
Sf
Temp Chem Water Layer Surface Precipitation
Sf Sub Frz Factor Pct Depth IcePct Cond Salin Type Intens Accum Rate
12/19/2014 01:39 Ice Warning 31.5F 31F 32F 5 0% - 99% 0 mhos 7 None None 0.02 in 0.0 iph
12/19/2014 01:39 Ice Warning 31.5F 31F 32F 5 0% - 99% 0 mhos 7 None None 0.02 in 0.0 iph
12/19/2014 01:29 Ice Warning 31.3F 31F 32F 5 0% - 99% 0 mhos 7 None None 0.02 in 0.0 iph
12/19/2014 01:21 Ice Warning 30.9F 31F 32F 5 0% - 99% 0 mhos 8 None None 0.02 in 0.0 iph
12/19/2014 01:19 Ice Warning 30.9F 31F 32F 5 0% - 99% 0 mhos 8 None None 0.02 in 0.0 iph
12/19/2014 01:09 Ice Warning 31.1F 31F 32F 5 0% - 99% 0 mhos 7 None None 0.02 in 0.0 iph
12/19/2014 01:08 Ice Warning 31.3F 31F 32F 5 0% - 99% 0 mhos 7 None None 0.02 in 0.0 iph
12/19/2014 00:59 Ice Warning 30.9F 31F 32F 5 0% - 99% 0 mhos 8 None None 0.02 in 0.0 iph
12/19/2014 00:51 Ice Warning 30.4F 31F 32F 5 0% - 99% 0 mhos 8 None None 0.02 in 0.0 iph
12/19/2014 00:49 Ice Warning 30.2F 31F 32F 5 0% - 100% 0 mhos 8 None None 0.02 in 0.0 iph
12/19/2014 00:41 Ice Warning 29.8F 31F 32F 5 0% - 100% 0 mhos 8 None None 0.02 in 0.0 iph
12/19/2014 00:39 Ice Warning 29.8F 31F 32F 5 0% - 100% 0 mhos 8 None None 0.02 in 0.0 iph
12/19/2014 00:29 Ice Warning 29.8F 31F 32F 5 0% - 100% 0 mhos 8 None None 0.02 in 0.0 iph
12/19/2014 00:19 Ice Warning 29.5F 31F 32F 10 0% - 100% 0 mhos 8 None None 0.02 in 0.0 iph
12/19/2014 00:09 Ice Warning 29.1F 31F 32F 5 0% - 100% 0 mhos 7 None None 0.02 in 0.0 iph
Date/Time
(MST)
Sf
Temp Chem Water Layer Surface Precipitation
Sf Sub Frz Factor Pct Depth IcePct Cond Salin Type Intens Accum Rate
12/18/2014 23:59 Ice Warning 29.1F 31F 32F 10 0% - 100% 0 mhos 7 None None 0.02 in 0.0 iph
12/18/2014 23:58 Ice Warning 28.9F 31F 32F 5 0% - 100% 0 mhos 7 None None 0.02 in 0.0 iph
12/18/2014 23:49 Ice Warning 28.9F 31F 32F 5 0% - 100% 0 mhos 7 None None 0.02 in 0.0 iph
12/18/2014 23:41 Ice Warning 28.9F 31F 32F 5 0% - 100% 0 mhos 7 None None 0.02 in 0.0 iph
12/18/2014 23:39 Ice Warning 28.9F 31F 32F 5 0% - 100% 0 mhos 7 None None 0.02 in 0.0 iph
12/18/2014 23:28 Ice Warning 29.1F 31F 32F 5 0% - 100% 0 mhos 7 None None 0.02 in 0.0 iph
12/18/2014 23:21 Ice Warning 29.1F 31F 32F 5 0% - 100% 0 mhos 7 None None 0.02 in 0.0 iph
12/18/2014 23:18 Ice Warning 29.1F 31F 32F 5 0% - 100% 0 mhos 7 None None 0.02 in 0.0 iph
12/18/2014 23:11 Ice Warning 29.3F 31F 32F 5 0% - 100% 0 mhos 7 None None 0.02 in 0.0 iph
12/18/2014 23:08 Ice Warning 29.3F 31F 32F 5 0% - 100% 0 mhos 7 None None 0.02 in 0.0 iph
12/18/2014 22:58 Ice Warning 29.5F 31F 32F 5 0% - 100% 0 mhos 6 None None 0.02 in 0.0 iph
12/18/2014 22:51 Ice Warning 29.7F 31F 32F 5 0% - 100% 0 mhos 6 None None 0.02 in 0.0 iph
12/18/2014 22:48 Ice Warning 29.7F 31F 32F 5 0% - 100% 0 mhos 6 None None 0.02 in 0.0 iph
12/18/2014 22:41 Ice Warning 30.0F 31F 32F 5 0% - 100% 0 mhos 6 None None 0.02 in 0.0 iph
12/18/2014 22:38 Ice Warning 30.0F 31F 32F 5 0% - 100% 0 mhos 6 None None 0.02 in 0.0 iph
Date/Time
(MST)
Sf
Temp Chem Water Layer Surface Precipitation
Sf Sub Frz Factor Pct Depth IcePct Cond Salin Type Intens Accum Rate
12/18/2014 22:28 Ice Warning 29.8F 31F 32F 5 0% - 100% 0 mhos 6 None None 0.02 in 0.0 iph
12/18/2014 22:23 Ice Warning 29.8F 31F 32F 5 0% - 100% 0 mhos 6 None None 0.02 in 0.0 iph
12/18/2014 22:18 Ice Warning 30.0F 31F 32F 5 0% - 100% 0 mhos 6 None None 0.02 in 0.0 iph
12/18/2014 22:11 Ice Warning 29.8F 31F 32F 5 0% - 100% 0 mhos 6 None None 0.02 in 0.0 iph
12/18/2014 22:08 Ice Warning 30.0F 31F 32F 5 0% - 100% 0 mhos 6 None None 0.02 in 0.0 iph
12/18/2014 21:58 Ice Warning 29.8F 31F 32F 5 0% - 100% 0 mhos 6 None None 0.02 in 0.0 iph
12/18/2014 21:51 Ice Warning 30.0F 31F 32F 5 0% - 100% 0 mhos 6 None None 0.02 in 0.0 iph
12/18/2014 21:48 Ice Warning 30.0F 31F 32F 5 0% - 100% 0 mhos 6 None None 0.02 in 0.0 iph
12/18/2014 21:40 Ice Warning 30.2F 31F 32F 5 0% - 100% 0 mhos 6 None None 0.02 in 0.0 iph
12/18/2014 21:38 Ice Warning 30.2F 31F 32F 5 0% - 100% 0 mhos 6 None None 0.02 in 0.0 iph
12/18/2014 21:28 Ice Warning 30.7F 31F 32F 5 0% - 99% 0 mhos 6 None None 0.02 in 0.0 iph
12/18/2014 21:21 Ice Warning 31.1F 31F 32F 5 0% - 99% 0 mhos 6 None None 0.02 in 0.0 iph
12/18/2014 21:18 Ice Warning 31.1F 31F 32F 5 0% - 99% 0 mhos 6 None None 0.02 in 0.0 iph
12/18/2014 21:10 Ice Warning 31.1F 31F 32F 5 0% - 99% 0 mhos 6 None None 0.02 in 0.0 iph
12/18/2014 21:08 Ice Warning 30.7F 31F 32F 5 0% - 99% 0 mhos 6 None None 0.02 in 0.0 iph
Date/Time
(MST)
Sf
Temp Chem Water Layer Surface Precipitation
Sf Sub Frz Factor Pct Depth IcePct Cond Salin Type Intens Accum Rate
12/18/2014 20:58 Ice Warning 30.7F 31F 32F 5 0% - 100% 0 mhos 6 None None 0.02 in 0.0 iph
12/18/2014 20:51 Ice Warning 30.6F 31F 32F 5 0% - 100% 0 mhos 6 None None 0.02 in 0.0 iph
12/18/2014 20:47 Ice Warning 30.6F 31F 32F 5 0% - 100% 0 mhos 6 None None 0.02 in 0.0 iph
12/18/2014 20:41 Ice Warning 30.7F 31F 32F 5 0% - 100% 0 mhos 6 None None 0.02 in 0.0 iph
12/18/2014 20:37 Ice Warning 30.7F 31F 32F 5 0% - 100% 0 mhos 6 None None 0.02 in 0.0 iph
12/18/2014 20:27 Ice Warning 30.7F 31F 32F 5 0% - 100% 0 mhos 6 None None 0.02 in 0.0 iph
12/18/2014 20:21 Ice Warning 30.7F 31F 32F 5 0% - 100% 0 mhos 6 None None 0.02 in 0.0 iph
12/18/2014 20:17 Ice Warning 30.7F 31F 32F 5 0% - 99% 0 mhos 6 None None 0.02 in 0.0 iph
12/18/2014 20:11 Ice Warning 30.7F 31F 32F 5 0% - 100% 0 mhos 6 None None 0.02 in 0.0 iph
12/18/2014 20:07 Ice Warning 30.9F 31F 32F 5 0% - 99% 0 mhos 6 None None 0.02 in 0.0 iph
12/18/2014 19:57 Ice Warning 31.1F 31F 32F 5 0% - 99% 0 mhos 6 None None 0.02 in 0.0 iph
12/18/2014 19:51 Ice Warning 31.1F 31F 32F 10 0% - 99% 0 mhos 6 None None 0.02 in 0.0 iph
12/18/2014 19:47 Ice Warning 31.1F 31F 32F 5 0% - 99% 0 mhos 6 None None 0.02 in 0.0 iph
12/18/2014 19:40 Ice Warning 31.3F 31F 32F 5 0% - 99% 0 mhos 6 Rain Slight 0.02 in 0.0 iph
12/18/2014 19:37 Ice Warning 31.5F 31F 32F 5 0% - 99% 0 mhos 6 Unidentified Slight 0.02 in 0.0 iph
Date/Time
(MST)
Sf
Temp Chem Water Layer Surface Precipitation
Sf Sub Frz Factor Pct Depth IcePct Cond Salin Type Intens Accum Rate
12/18/2014 19:27 Ice Warning 31.5F 31F 32F 5 0% - 99% 0 mhos 6 None None 0.02 in 0.0 iph
12/18/2014 19:21 Ice Warning 31.8F 31F 32F 5 0% - 98% 0 mhos 5 Rain Slight 0.02 in 0.0 iph
12/18/2014 19:17 Ice Warning 31.8F 31F 32F 5 0% - 98% 0 mhos 5 None None 0.02 in 0.0 iph
12/18/2014 19:10 Ice Warning 31.8F 31F 32F 5 0% - 94% 0 mhos 5 None None 0.02 in 0.0 iph
12/18/2014 19:07 Ice Warning 31.8F 31F 32F 5 0% - 94% 0 mhos 5 None None 0.02 in 0.0 iph
12/18/2014 18:57 Ice Warning 31.8F 31F 32F 5 0% - 94% 0 mhos 5 None None 0.02 in 0.0 iph
12/18/2014 18:51 Ice Warning 31.8F 31F 32F 5 0% - 94% 0 mhos 5 None None 0.02 in 0.0 iph
12/18/2014 18:47 Wet 32.2F 31F 32F 5 0% 0.00 in 0% 0 mhos 5 None None 0.02 in 0.0 iph
12/18/2014 18:41 Wet 32.4F 31F 32F 5 0% 0.00 in 0% 0 mhos 6 Rain Slight 0.02 in 0.0 iph
12/18/2014 18:37 Wet 32.5F 31F 32F 5 0% 0.00 in 0% 0 mhos 5 Rain Slight 0.02 in 0.0 iph
12/18/2014 18:27 Wet 32.7F 31F 32F 5 0% 0.00 in 0% 0 mhos 6 Unidentified Slight 0.02 in 0.0 iph
12/18/2014 18:21 Wet 32.7F 31F 32F 5 0% 0.00 in 0% 0 mhos 6 Rain Slight 0.02 in 0.0 iph
12/18/2014 18:17 Wet 32.7F 31F 32F 5 0% 0.00 in 0% 0 mhos 6 Rain Slight 0.02 in 0.0 iph
12/18/2014 18:11 Wet 32.9F 31F 32F 5 0% 0.00 in 0% 0 mhos 6 None None 0.02 in 0.0 iph
12/18/2014 18:06 Wet 33.1F 31F 32F 5 0% 0.00 in 0% 0 mhos 6 Rain Slight 0.02 in 0.0 iph
Date/Time
(MST)
Sf
Temp Chem Water Layer Surface Precipitation
Sf Sub Frz Factor Pct Depth IcePct Cond Salin Type Intens Accum Rate
12/18/2014 17:56 Wet 33.1F 31F 32F 5 0% 0.00 in 0% 0 mhos 7 Rain Slight 0.02 in 0.0 iph
12/18/2014 17:51 Wet 33.3F 31F 32F 10 0% 0.00 in 0% 0 mhos 7 Rain Slight 0.02 in 0.0 iph
12/18/2014 17:46 Wet 33.6F 31F 32F 10 0% 0.00 in 0% 0 mhos 7 Rain Slight 0.02 in 0.0 iph
12/18/2014 17:41 Wet 33.6F 31F 32F 5 0% 0.00 in 0% 0 mhos 6 Rain Slight 0.02 in 0.0 iph
12/18/2014 17:36 Wet 33.6F 31F 32F 5 0% 0.00 in 0% 0 mhos 6 Unidentified Slight 0.02 in 0.0 iph
12/18/2014 17:26 Wet 33.8F 31F 32F 5 0% 0.00 in 0% 0 mhos 5 None None 0.02 in 0.0 iph
12/18/2014 17:21 Wet 33.8F 31F 32F 5 0% 0.00 in 0% 0 mhos 6 None None 0.02 in 0.0 iph
12/18/2014 17:16 Wet 34.2F 31F 32F 5 0% 0.00 in 0% 0 mhos 6 None None 0.02 in 0.0 iph
12/18/2014 17:11 Wet 34.2F 31F 32F 5 0% 0.00 in 0% 0 mhos 5 None None 0.02 in 0.0 iph
12/18/2014 17:06 Wet 34.2F 31F 32F 5 0% 0.00 in 0% 0 mhos 6 None None 0.02 in 0.0 iph
12/18/2014 16:56 Wet 34.2F 31F 32F 5 0% 0.00 in 0% 0 mhos 6 None None 0.02 in 0.0 iph
12/18/2014 16:51 Wet 34.2F 31F 32F 5 0% 0.00 in 0% 0 mhos 6 None None 0.02 in 0.0 iph
12/18/2014 16:46 Wet 34.3F 31F 32F 5 0% 0.00 in 0% 0 mhos 6 None None 0.02 in 0.0 iph
12/18/2014 16:40 Wet 34.5F 31F 32F 5 0% 0.00 in 0% 0 mhos 6 None None 0.02 in 0.0 iph
12/18/2014 16:36 Wet 34.7F 31F 32F 5 0% 0.00 in 0% 0 mhos 6 None None 0.02 in 0.0 iph
Change End Date:
Copyright © 1998-2005 Surface Systems, Inc.
All Rights Reserved
Send comments about the data to:
SCAN Web ® is a registered trademark of Surface Systems, Inc.
SCAN Web Version 5.6